Time;durP1;ratioP1;P1;durP2;ratioP2;P2;SDS_P1;SDS_P2;PMS_P1;PMS_P2;Temp;Humidity;BMP_temperature;BMP_pressure;BME280_temperature;BME280_humidity;BME280_pressure;Samples;Min_cycle;Max_cycle;Signal;HPM_P1;HPM_P2
2021/04/19 00:02:18;;;;;;;44.67;23.97;;;;;;;;;;6154993;23;20161;-91
2021/04/19 00:05:24;;;;;;;45.23;23.40;;;;;;;;;;6154290;23;20192;-90
2021/04/19 00:08:33;;;;;;;44.23;23.13;;;;;;;;;;6154414;23;20177;-93
2021/04/19 00:11:42;;;;;;;49.23;24.03;;;;;;;;;;6154850;23;20234;-93
2021/04/19 00:14:47;;;;;;;45.63;23.57;;;;;;;;;;6154040;23;20189;-92
2021/04/19 00:17:51;;;;;;;44.17;24.57;;;;;;;;;;6151175;23;20176;-90
2021/04/19 00:20:59;;;;;;;44.57;23.53;;;;;;;;;;6152234;23;20165;-90
2021/04/19 00:24:03;;;;;;;45.30;24.10;;;;;;;;;;6152414;23;20542;-93
2021/04/19 00:27:10;;;;;;;46.90;24.47;;;;;;;;;;6152192;23;20200;-94
2021/04/19 00:30:22;;;;;;;45.07;23.93;;;;;;;;;;6151738;23;20185;-91
2021/04/19 00:33:29;;;;;;;45.90;23.07;;;;;;;;;;6152138;23;20205;-92
2021/04/19 00:36:35;;;;;;;51.27;25.37;;;;;;;;;;6153092;23;20225;-91
2021/04/19 00:39:39;;;;;;;43.83;24.17;;;;;;;;;;6153313;23;20209;-92
2021/04/19 00:42:44;;;;;;;48.73;23.97;;;;;;;;;;6154058;23;20623;-92
2021/04/19 00:45:50;;;;;;;42.63;22.97;;;;;;;;;;6152431;23;20320;-92
2021/04/19 00:48:59;;;;;;;47.50;24.23;;;;;;;;;;6152406;23;20177;-92
2021/04/19 00:52:10;;;;;;;44.83;22.83;;;;;;;;;;6151550;23;20177;-91
2021/04/19 00:55:17;;;;;;;48.40;24.17;;;;;;;;;;6152458;23;20201;-92
2021/04/19 00:58:27;;;;;;;45.80;24.77;;;;;;;;;;6150649;23;20270;-92
2021/04/19 01:01:33;;;;;;;44.67;22.60;;;;;;;;;;6153340;23;20173;-92
2021/04/19 01:04:38;;;;;;;44.57;23.37;;;;;;;;;;6151604;23;20225;-92
2021/04/19 01:07:45;;;;;;;47.20;23.67;;;;;;;;;;6151264;23;20188;-91
2021/04/19 01:10:50;;;;;;;46.87;23.70;;;;;;;;;;6151304;23;20209;-91
2021/04/19 01:13:55;;;;;;;42.67;23.03;;;;;;;;;;6152148;23;20189;-92
2021/04/19 01:17:05;;;;;;;48.27;24.40;;;;;;;;;;6150312;23;20195;-92
2021/04/19 01:20:16;;;;;;;48.73;23.80;;;;;;;;;;6152391;23;20168;-91
2021/04/19 01:23:29;;;;;;;48.70;25.13;;;;;;;;;;6151839;23;20172;-91
2021/04/19 01:26:34;;;;;;;44.80;24.10;;;;;;;;;;6150948;23;20196;-93
2021/04/19 01:29:47;;;;;;;47.73;24.53;;;;;;;;;;6153724;23;20172;-93
2021/04/19 01:32:54;;;;;;;48.47;24.07;;;;;;;;;;6152616;23;20229;-90
2021/04/19 01:35:59;;;;;;;49.93;24.10;;;;;;;;;;6153952;23;20165;-91
2021/04/19 01:39:06;;;;;;;44.27;22.90;;;;;;;;;;6152509;23;20652;-92
2021/04/19 01:42:11;;;;;;;43.30;22.73;;;;;;;;;;6154343;23;20172;-91
2021/04/19 01:45:18;;;;;;;44.03;23.47;;;;;;;;;;6152147;23;20164;-91
2021/04/19 01:48:23;;;;;;;53.20;24.37;;;;;;;;;;6153299;23;20218;-92
2021/04/19 01:51:32;;;;;;;45.10;22.83;;;;;;;;;;6152788;23;20205;-91
2021/04/19 01:54:38;;;;;;;44.13;23.17;;;;;;;;;;6153607;23;20176;-93
2021/04/19 01:57:45;;;;;;;43.07;23.17;;;;;;;;;;6154462;23;20168;-91
2021/04/19 02:00:52;;;;;;;45.90;23.27;;;;;;;;;;6156945;23;20652;-92
2021/04/19 02:04:03;;;;;;;48.07;24.83;;;;;;;;;;6154549;23;20177;-90
2021/04/19 02:07:21;;;;;;;47.00;23.40;;;;;;;;;;6155731;23;20189;-92
2021/04/19 02:10:35;;;;;;;43.33;23.27;;;;;;;;;;6155580;23;20309;-90
2021/04/19 02:13:43;;;;;;;44.63;22.80;;;;;;;;;;6156717;23;20169;-91
2021/04/19 02:16:52;;;;;;;49.27;24.67;;;;;;;;;;6155827;23;20172;-92
2021/04/19 02:20:02;;;;;;;48.73;24.23;;;;;;;;;;6157271;23;20189;-92
2021/04/19 02:23:15;;;;;;;45.33;23.63;;;;;;;;;;6156353;23;20164;-91
2021/04/19 02:26:23;;;;;;;46.50;24.50;;;;;;;;;;6155548;23;20180;-92
2021/04/19 02:29:38;;;;;;;45.47;23.67;;;;;;;;;;6157456;23;20172;-91
2021/04/19 02:32:47;;;;;;;45.43;23.93;;;;;;;;;;6155551;23;20172;-92
2021/04/19 02:35:52;;;;;;;49.27;24.17;;;;;;;;;;6155796;23;20245;-92
2021/04/19 02:38:59;;;;;;;54.20;25.90;;;;;;;;;;6155554;23;20209;-91
2021/04/19 02:42:09;;;;;;;49.73;25.63;;;;;;;;;;6155538;23;20157;-92
2021/04/19 02:45:16;;;;;;;50.97;25.63;;;;;;;;;;6155806;23;20189;-92
2021/04/19 02:48:29;;;;;;;50.10;26.77;;;;;;;;;;6154852;23;20189;-91
2021/04/19 02:51:42;;;;;;;49.10;25.03;;;;;;;;;;6157158;23;20169;-92
2021/04/19 02:54:49;;;;;;;55.37;25.47;;;;;;;;;;6155887;23;20188;-92
2021/04/19 02:58:01;;;;;;;50.37;25.17;;;;;;;;;;6155374;23;20189;-91
2021/04/19 03:01:08;;;;;;;50.03;25.03;;;;;;;;;;6154676;23;20221;-92
2021/04/19 03:04:14;;;;;;;52.37;25.90;;;;;;;;;;6155502;23;20172;-92
2021/04/19 03:07:28;;;;;;;50.97;26.40;;;;;;;;;;6155026;23;20224;-92
2021/04/19 03:10:36;;;;;;;52.10;26.57;;;;;;;;;;6155638;23;20173;-93
2021/04/19 03:13:44;;;;;;;50.10;25.80;;;;;;;;;;6154390;23;20172;-91
2021/04/19 03:17:02;;;;;;;47.20;25.43;;;;;;;;;;6154717;23;20169;-91
2021/04/19 03:20:29;;;;;;;53.90;25.67;;;;;;;;;;6155873;23;20213;-92
2021/04/19 03:23:47;;;;;;;50.30;25.53;;;;;;;;;;6153596;23;20165;-93
2021/04/19 03:26:58;;;;;;;49.53;25.73;;;;;;;;;;6154692;23;20176;-91
2021/04/19 03:30:09;;;;;;;51.03;24.93;;;;;;;;;;6156420;23;20169;-92
2021/04/19 03:33:22;;;;;;;49.83;24.90;;;;;;;;;;6154121;23;20623;-92
2021/04/19 03:36:31;;;;;;;47.70;24.77;;;;;;;;;;6154594;23;20172;-91
2021/04/19 03:39:36;;;;;;;53.93;26.27;;;;;;;;;;6154928;23;20169;-92
2021/04/19 03:42:42;;;;;;;47.77;25.37;;;;;;;;;;6155992;23;20169;-93
2021/04/19 03:45:58;;;;;;;50.10;25.97;;;;;;;;;;6155191;23;20212;-92
2021/04/19 03:49:05;;;;;;;50.73;26.93;;;;;;;;;;6173028;23;20213;-91
2021/04/19 03:52:30;;;;;;;57.47;28.50;;;;;;;;;;6154479;23;20485;-91
2021/04/19 03:55:36;;;;;;;54.73;28.57;;;;;;;;;;6138115;23;20208;-91
2021/04/19 03:58:41;;;;;;;49.53;25.17;;;;;;;;;;6139477;23;20220;-92
2021/04/19 04:02:17;;;;;;;54.37;27.23;;;;;;;;;;6155990;23;20177;-92
2021/04/19 04:05:39;;;;;;;57.33;27.40;;;;;;;;;;6156636;23;20209;-92
2021/04/19 04:09:03;;;;;;;53.10;25.87;;;;;;;;;;6156599;23;20198;-91
2021/04/19 04:12:09;;;;;;;54.23;26.87;;;;;;;;;;6157664;23;20169;-90
2021/04/19 04:15:18;;;;;;;55.87;27.67;;;;;;;;;;6156329;23;20193;-91
2021/04/19 04:18:29;;;;;;;51.70;25.93;;;;;;;;;;6156163;23;20158;-93
2021/04/19 04:21:38;;;;;;;57.57;28.00;;;;;;;;;;6157704;23;20240;-92
2021/04/19 04:24:53;;;;;;;54.03;26.03;;;;;;;;;;6157761;23;20211;-90
2021/04/19 04:27:59;;;;;;;49.53;25.23;;;;;;;;;;6160783;23;20168;-91
2021/04/19 04:31:07;;;;;;;54.50;26.57;;;;;;;;;;6160205;23;20172;-90
2021/04/19 04:40:09;;;;;;;52.00;25.83;;;;;;;;;;6177585;23;20189;-92
2021/04/19 04:43:18;;;;;;;47.40;24.80;;;;;;;;;;6160346;23;20188;-92
2021/04/19 04:46:28;;;;;;;56.60;25.50;;;;;;;;;;6161312;23;20244;-92
2021/04/19 04:49:35;;;;;;;50.07;25.23;;;;;;;;;;6160668;23;20157;-90
2021/04/19 04:52:47;;;;;;;53.13;25.80;;;;;;;;;;6160832;23;20244;-91
2021/04/19 04:59:16;;;;;;;49.37;25.43;;;;;;;;;;6161248;23;20164;-91
2021/04/19 05:02:26;;;;;;;49.73;25.20;;;;;;;;;;6160850;23;20253;-93
2021/04/19 05:05:34;;;;;;;50.87;25.20;;;;;;;;;;6163474;23;20164;-91
2021/04/19 05:08:47;;;;;;;53.03;26.20;;;;;;;;;;6162217;23;20156;-93
2021/04/19 05:11:58;;;;;;;58.97;29.73;;;;;;;;;;6161405;23;20156;-92
2021/04/19 05:15:07;;;;;;;50.03;25.13;;;;;;;;;;6160337;23;20193;-91
2021/04/19 05:18:16;;;;;;;55.00;26.57;;;;;;;;;;6161918;23;20201;-90
2021/04/19 05:21:24;;;;;;;54.80;26.17;;;;;;;;;;6161553;23;20169;-92
2021/04/19 05:24:38;;;;;;;57.63;28.27;;;;;;;;;;6157626;23;20164;-92
2021/04/19 05:27:47;;;;;;;63.57;28.30;;;;;;;;;;6156931;23;20213;-89
2021/04/19 05:30:54;;;;;;;64.80;30.23;;;;;;;;;;6157850;23;20161;-91
2021/04/19 06:18:29;;;;;;;65.57;31.43;;;;;;;;;;6167960;23;20673;-90
2021/04/19 06:21:35;;;;;;;67.30;31.43;;;;;;;;;;6154821;23;20168;-90
2021/04/19 06:24:39;;;;;;;64.77;31.07;;;;;;;;;;6157273;23;20189;-90
2021/04/19 06:27:51;;;;;;;64.00;31.37;;;;;;;;;;6158846;23;20200;-91
2021/04/19 06:31:00;;;;;;;63.67;30.73;;;;;;;;;;6157126;23;20172;-89
2021/04/19 09:07:03;;;;;;;62.03;30.30;;;;;;;;;;6172163;23;20193;-90
2021/04/19 09:10:10;;;;;;;59.17;28.87;;;;;;;;;;6154570;23;20216;-90
2021/04/19 09:13:30;;;;;;;60.90;29.00;;;;;;;;;;6153780;23;20183;-91
2021/04/19 09:16:36;;;;;;;55.77;28.33;;;;;;;;;;6153705;23;20168;-90
2021/04/19 09:19:43;;;;;;;59.60;29.30;;;;;;;;;;6154294;23;20169;-89
2021/04/19 09:22:49;;;;;;;58.30;28.73;;;;;;;;;;6151776;23;20169;-89
2021/04/19 09:25:54;;;;;;;64.80;29.57;;;;;;;;;;6154442;23;20193;-90
2021/04/19 09:28:58;;;;;;;58.97;29.30;;;;;;;;;;6152844;23;20171;-90
2021/04/19 09:32:04;;;;;;;66.50;31.00;;;;;;;;;;6158292;23;20155;-91
2021/04/19 09:35:10;;;;;;;63.67;30.33;;;;;;;;;;6160067;23;20205;-90
2021/04/19 09:38:16;;;;;;;60.97;29.90;;;;;;;;;;6158135;23;20608;-90
2021/04/19 09:41:24;;;;;;;70.20;32.40;;;;;;;;;;6156572;23;20168;-90
2021/04/19 09:44:29;;;;;;;68.63;31.87;;;;;;;;;;6153326;23;20189;-90
2021/04/19 09:47:49;;;;;;;60.57;30.37;;;;;;;;;;6155667;23;20378;-89
2021/04/19 09:50:54;;;;;;;66.20;30.97;;;;;;;;;;6156309;23;20164;-90
2021/04/19 09:54:03;;;;;;;65.93;30.63;;;;;;;;;;6157257;23;20188;-91
2021/04/19 09:57:10;;;;;;;64.80;30.80;;;;;;;;;;6154755;23;20209;-89
2021/04/19 10:00:17;;;;;;;64.67;31.53;;;;;;;;;;6162523;23;20197;-89
2021/04/19 10:03:23;;;;;;;61.07;30.77;;;;;;;;;;6156903;23;20247;-90
2021/04/19 10:06:32;;;;;;;68.77;32.33;;;;;;;;;;6156448;23;20236;-90
2021/04/19 10:09:40;;;;;;;63.33;30.90;;;;;;;;;;6154475;23;20275;-90
2021/04/19 10:12:47;;;;;;;65.47;31.33;;;;;;;;;;6156282;23;20165;-90
2021/04/19 10:16:00;;;;;;;56.23;28.50;;;;;;;;;;6156143;23;20510;-89
2021/04/19 10:19:05;;;;;;;52.80;27.53;;;;;;;;;;6154417;23;20505;-91
2021/04/19 10:22:13;;;;;;;52.83;26.43;;;;;;;;;;6155431;23;20144;-89
2021/04/19 10:25:19;;;;;;;44.43;24.10;;;;;;;;;;6157494;23;20223;-90
2021/04/19 10:28:27;;;;;;;41.67;22.43;;;;;;;;;;6155385;23;20180;-90
2021/04/19 10:31:32;;;;;;;42.93;22.20;;;;;;;;;;6156321;23;20169;-91
2021/04/19 10:34:36;;;;;;;38.87;20.47;;;;;;;;;;6156950;23;20175;-90
2021/04/19 11:43:32;;;;;;;12.32;7.57;;;;;;;;;;6075004;23;20169;-90
2021/04/19 11:50:15;;;;;;;14.52;7.63;;;;;;;;;;6069356;23;20201;-90
2021/04/19 11:53:24;;;;;;;13.95;8.20;;;;;;;;;;6068051;23;20191;-90
2021/04/19 11:56:29;;;;;;;12.75;7.75;;;;;;;;;;6068249;23;20198;-90
2021/04/19 11:59:34;;;;;;;12.80;7.90;;;;;;;;;;6069675;23;20175;-90
2021/04/19 12:02:39;;;;;;;12.10;7.55;;;;;;;;;;6067997;23;20238;-90
2021/04/19 12:05:45;;;;;;;11.38;6.70;;;;;;;;;;6085324;23;20155;-90
2021/04/19 12:08:52;;;;;;;11.40;7.20;;;;;;;;;;6069821;23;20234;-89
2021/04/19 12:11:58;;;;;;;13.13;7.03;;;;;;;;;;6071484;23;20224;-91
2021/04/19 12:15:03;;;;;;;10.23;6.47;;;;;;;;;;6069783;23;20206;-92
2021/04/19 12:18:08;;;;;;;10.82;6.70;;;;;;;;;;6070449;23;20159;-91
2021/04/19 12:21:16;;;;;;;8.48;5.68;;;;;;;;;;6108119;23;20207;-90
2021/04/19 12:24:21;;;;;;;8.70;5.95;;;;;;;;;;6157910;23;20168;-91
2021/04/19 12:27:26;;;;;;;10.10;6.65;;;;;;;;;;6156981;23;20180;-92
2021/04/19 12:30:32;;;;;;;12.85;6.93;;;;;;;;;;6156097;23;20173;-91
2021/04/19 15:05:47;;;;;;;13.32;6.72;;;;;;;;;;6159778;23;20217;-93
2021/04/19 15:08:52;;;;;;;11.98;6.85;;;;;;;;;;6155589;23;20273;-92
2021/04/19 15:11:57;;;;;;;11.18;6.90;;;;;;;;;;6157444;23;20180;-92
2021/04/19 15:15:09;;;;;;;14.68;7.93;;;;;;;;;;6160223;23;20222;-91
2021/04/19 15:18:14;;;;;;;10.93;6.68;;;;;;;;;;6158883;23;20225;-91
2021/04/19 15:21:27;;;;;;;11.02;6.40;;;;;;;;;;6141452;23;20222;-91
2021/04/19 15:24:31;;;;;;;12.98;6.97;;;;;;;;;;6156989;23;20172;-90
2021/04/19 15:27:37;;;;;;;11.23;6.45;;;;;;;;;;6156013;23;20172;-92
2021/04/19 15:30:42;;;;;;;12.77;6.57;;;;;;;;;;6158997;23;20208;-92
2021/04/19 15:33:48;;;;;;;12.85;6.90;;;;;;;;;;6157033;23;20668;-92
2021/04/19 15:36:55;;;;;;;17.65;7.50;;;;;;;;;;6156962;23;20180;-92
2021/04/19 15:40:03;;;;;;;13.43;6.38;;;;;;;;;;6156057;23;20180;-91
2021/04/19 15:43:08;;;;;;;14.60;7.30;;;;;;;;;;6156006;23;20613;-91
2021/04/19 15:46:13;;;;;;;15.38;7.28;;;;;;;;;;6156071;23;20193;-92
2021/04/19 15:49:18;;;;;;;14.73;6.93;;;;;;;;;;6156056;23;20172;-90
2021/04/19 15:52:41;;;;;;;12.82;6.65;;;;;;;;;;6158014;23;20175;-91
2021/04/19 15:55:56;;;;;;;13.15;7.45;;;;;;;;;;6157588;23;20168;-88
2021/04/19 15:59:03;;;;;;;20.55;10.18;;;;;;;;;;6156453;23;20208;-91
2021/04/19 16:02:09;;;;;;;16.73;7.95;;;;;;;;;;6155977;23;20164;-90
2021/04/19 16:05:14;;;;;;;14.13;7.47;;;;;;;;;;6154135;23;20176;-90
2021/04/19 16:08:18;;;;;;;16.23;7.72;;;;;;;;;;6153278;23;20172;-90
2021/04/19 16:11:25;;;;;;;12.85;6.55;;;;;;;;;;6150091;23;20175;-89
2021/04/19 16:14:29;;;;;;;17.30;7.35;;;;;;;;;;6152511;23;20223;-90
2021/04/19 16:17:35;;;;;;;15.10;7.55;;;;;;;;;;6153026;23;20216;-92
2021/04/19 16:20:39;;;;;;;17.80;8.52;;;;;;;;;;6151613;23;20180;-89
2021/04/19 16:23:44;;;;;;;15.35;7.72;;;;;;;;;;6152057;23;20278;-91
2021/04/19 16:26:50;;;;;;;20.80;8.15;;;;;;;;;;6150268;23;20164;-88
2021/04/19 16:29:55;;;;;;;15.30;7.50;;;;;;;;;;6152608;23;20643;-90
2021/04/19 16:33:00;;;;;;;16.08;7.85;;;;;;;;;;6152363;23;20276;-90
2021/04/19 16:36:05;;;;;;;18.42;7.30;;;;;;;;;;6151836;23;20218;-92
2021/04/19 16:39:10;;;;;;;13.57;6.95;;;;;;;;;;6153281;23;20192;-90
2021/04/19 16:42:16;;;;;;;12.00;6.47;;;;;;;;;;6153686;23;20172;-90
2021/04/19 16:45:22;;;;;;;13.05;7.57;;;;;;;;;;6152717;23;20161;-91
2021/04/19 16:48:27;;;;;;;14.60;6.70;;;;;;;;;;6154839;23;20176;-90
2021/04/19 16:51:32;;;;;;;12.77;7.30;;;;;;;;;;6153493;23;20169;-92
2021/04/19 16:54:37;;;;;;;17.80;7.60;;;;;;;;;;6153040;23;20176;-89
2021/04/19 16:57:42;;;;;;;14.10;7.25;;;;;;;;;;6153730;23;20195;-90
2021/04/19 17:00:46;;;;;;;16.35;7.82;;;;;;;;;;6155896;23;20207;-88
2021/04/19 17:03:52;;;;;;;17.48;7.65;;;;;;;;;;6154032;23;20185;-89
2021/04/19 17:06:57;;;;;;;15.32;7.50;;;;;;;;;;6156498;23;20205;-92
2021/04/19 17:14:19;;;;;;;14.00;7.60;;;;;;;;;;6171506;23;20229;-90
2021/04/19 17:17:26;;;;;;;14.13;7.80;;;;;;;;;;6138922;23;20192;-90
2021/04/19 17:20:31;;;;;;;14.63;7.63;;;;;;;;;;6155014;23;20500;-90
2021/04/19 17:23:36;;;;;;;17.85;8.52;;;;;;;;;;6157481;23;20176;-90
2021/04/19 17:26:40;;;;;;;17.37;9.33;;;;;;;;;;6156395;23;20189;-91
2021/04/19 17:29:49;;;;;;;17.80;9.07;;;;;;;;;;6155050;23;20196;-91
2021/04/19 17:32:54;;;;;;;17.70;8.85;;;;;;;;;;6155993;23;20168;-90
2021/04/19 17:36:03;;;;;;;20.70;9.27;;;;;;;;;;6156096;23;20217;-90
2021/04/19 17:39:09;;;;;;;20.77;10.30;;;;;;;;;;6153894;23;20177;-89
2021/04/19 17:42:15;;;;;;;18.30;9.52;;;;;;;;;;6156992;23;20185;-92
2021/04/19 17:45:21;;;;;;;19.83;9.50;;;;;;;;;;6154902;23;20168;-90
2021/04/19 17:48:26;;;;;;;26.17;9.90;;;;;;;;;;6156591;23;20169;-91
2021/04/19 17:51:32;;;;;;;18.60;10.13;;;;;;;;;;6156476;23;20169;-90
2021/04/19 17:54:37;;;;;;;19.60;9.77;;;;;;;;;;6157638;23;20176;-89
2021/04/19 17:57:48;;;;;;;21.70;10.27;;;;;;;;;;6157944;23;20438;-91
2021/04/19 18:00:56;;;;;;;22.60;11.50;;;;;;;;;;6160359;23;20210;-91
2021/04/19 18:04:01;;;;;;;23.73;11.20;;;;;;;;;;6159190;23;20172;-92
2021/04/19 18:07:06;;;;;;;22.73;11.40;;;;;;;;;;6159669;23;20173;-90
2021/04/19 18:10:14;;;;;;;22.97;11.10;;;;;;;;;;6159482;23;20248;-91
2021/04/19 18:13:19;;;;;;;24.27;11.60;;;;;;;;;;6160838;23;20160;-92
2021/04/19 18:16:26;;;;;;;23.43;10.83;;;;;;;;;;6159790;23;20176;-92
2021/04/19 18:19:33;;;;;;;24.53;11.30;;;;;;;;;;6158529;23;20646;-92
2021/04/19 18:22:37;;;;;;;26.33;12.63;;;;;;;;;;6157224;23;20172;-91
2021/04/19 18:25:42;;;;;;;24.90;10.43;;;;;;;;;;6156851;23;20515;-90
2021/04/19 18:28:49;;;;;;;19.83;9.60;;;;;;;;;;6157697;23;20196;-90
2021/04/19 18:31:55;;;;;;;20.30;10.57;;;;;;;;;;6158086;23;20216;-91
2021/04/19 18:35:03;;;;;;;23.53;11.10;;;;;;;;;;6157273;23;20219;-92
2021/04/19 18:38:08;;;;;;;26.73;11.60;;;;;;;;;;6158804;23;20242;-91
2021/04/19 18:41:15;;;;;;;20.77;11.13;;;;;;;;;;6155030;23;20211;-91
2021/04/19 18:44:20;;;;;;;21.70;10.80;;;;;;;;;;6155597;23;20492;-90
2021/04/19 18:47:48;;;;;;;19.83;10.47;;;;;;;;;;6156975;23;20282;-89
2021/04/19 18:50:54;;;;;;;22.67;11.77;;;;;;;;;;6155218;23;20247;-90
2021/04/19 18:54:01;;;;;;;22.30;11.47;;;;;;;;;;6153577;23;20176;-90
2021/04/19 18:57:06;;;;;;;23.23;11.97;;;;;;;;;;6152303;23;20252;-90
2021/04/19 19:00:13;;;;;;;25.23;12.53;;;;;;;;;;6153867;23;20197;-89
2021/04/19 19:03:18;;;;;;;23.80;12.50;;;;;;;;;;6156129;23;20197;-92
2021/04/19 19:06:25;;;;;;;23.33;12.57;;;;;;;;;;6152636;23;20240;-89
2021/04/19 19:09:29;;;;;;;24.57;12.47;;;;;;;;;;6154228;23;20223;-89
2021/04/19 19:12:34;;;;;;;26.87;13.07;;;;;;;;;;6154918;23;20192;-92
2021/04/19 19:15:39;;;;;;;26.33;11.97;;;;;;;;;;6152548;23;20613;-91
2021/04/19 19:18:44;;;;;;;25.57;13.33;;;;;;;;;;6152594;23;20192;-90
2021/04/19 19:21:51;;;;;;;23.33;12.00;;;;;;;;;;6152722;23;20260;-89
2021/04/19 19:24:57;;;;;;;26.47;12.37;;;;;;;;;;6152840;23;20204;-90
2021/04/19 19:28:02;;;;;;;27.57;14.37;;;;;;;;;;6154270;23;20231;-91
2021/04/19 19:31:07;;;;;;;23.93;12.60;;;;;;;;;;6125058;23;20162;-90
2021/04/19 19:34:12;;;;;;;23.47;11.90;;;;;;;;;;6125889;23;20197;-91
2021/04/19 19:37:18;;;;;;;22.88;10.98;;;;;;;;;;6125062;23;20193;-88
2021/04/19 19:40:27;;;;;;;20.60;11.60;;;;;;;;;;6127174;23;20165;-89
2021/04/19 19:43:33;;;;;;;24.40;12.53;;;;;;;;;;6127516;23;20201;-92
2021/04/19 19:46:39;;;;;;;28.43;13.53;;;;;;;;;;6126935;23;20169;-90
2021/04/19 19:49:44;;;;;;;25.50;13.47;;;;;;;;;;6127330;23;20190;-91
2021/04/19 19:52:50;;;;;;;23.03;12.03;;;;;;;;;;6126029;23;20197;-89
2021/04/19 19:55:56;;;;;;;26.30;12.57;;;;;;;;;;6126844;23;20197;-91
2021/04/19 19:59:01;;;;;;;28.00;13.63;;;;;;;;;;6126122;23;20165;-91
2021/04/19 20:02:05;;;;;;;27.53;14.03;;;;;;;;;;6128438;23;20173;-91
2021/04/19 20:05:12;;;;;;;30.97;13.83;;;;;;;;;;6127724;23;20266;-91
2021/04/19 20:08:18;;;;;;;26.73;13.50;;;;;;;;;;6128080;23;20660;-89
2021/04/19 20:11:23;;;;;;;29.07;14.07;;;;;;;;;;6127926;23;20149;-91
2021/04/19 20:14:31;;;;;;;24.13;13.33;;;;;;;;;;6128468;23;20209;-90
2021/04/19 20:17:38;;;;;;;27.17;13.43;;;;;;;;;;6125981;23;20196;-91
2021/04/19 20:20:44;;;;;;;30.63;13.33;;;;;;;;;;6126410;23;20169;-91
2021/04/19 20:23:52;;;;;;;35.60;16.37;;;;;;;;;;6125472;23;20177;-90
2021/04/19 20:26:57;;;;;;;32.43;15.40;;;;;;;;;;6127606;23;20194;-90
2021/04/19 20:30:01;;;;;;;27.00;14.73;;;;;;;;;;6126399;23;20240;-90
2021/04/19 20:33:06;;;;;;;34.53;16.17;;;;;;;;;;6130225;23;20153;-89
2021/04/19 20:36:11;;;;;;;33.70;16.13;;;;;;;;;;6130714;23;20194;-91
2021/04/19 20:39:17;;;;;;;30.47;16.17;;;;;;;;;;6130276;23;20506;-90
2021/04/19 20:42:22;;;;;;;29.90;14.47;;;;;;;;;;6129976;23;20196;-89
2021/04/19 20:45:30;;;;;;;26.77;13.73;;;;;;;;;;6130950;23;20617;-91
2021/04/19 20:49:18;;;;;;;31.00;15.27;;;;;;;;;;6129820;23;20193;-88
2021/04/19 20:52:33;;;;;;;31.80;15.10;;;;;;;;;;6129707;23;20153;-90
2021/04/19 20:55:39;;;;;;;31.23;15.23;;;;;;;;;;6128150;23;20197;-90
2021/04/19 20:58:44;;;;;;;30.80;15.03;;;;;;;;;;6125869;23;20624;-91
2021/04/19 21:01:49;;;;;;;28.67;15.53;;;;;;;;;;6126728;23;20199;-92
2021/04/19 22:00:43;;;;;;;29.80;14.90;;;;;;;;;;6100327;23;20197;-91
2021/04/19 22:03:48;;;;;;;29.73;14.73;;;;;;;;;;6100871;23;20251;-90
2021/04/19 22:06:53;;;;;;;27.37;13.90;;;;;;;;;;6099263;23;20206;-91
2021/04/19 22:09:58;;;;;;;26.97;14.20;;;;;;;;;;6099489;23;20222;-89
2021/04/19 22:13:03;;;;;;;29.90;14.53;;;;;;;;;;6098504;23;20169;-91
2021/04/19 22:16:09;;;;;;;31.00;14.70;;;;;;;;;;6098891;23;20193;-91
2021/04/19 22:19:13;;;;;;;29.67;14.13;;;;;;;;;;6100164;23;20171;-92
2021/04/19 22:22:18;;;;;;;27.80;13.77;;;;;;;;;;6099445;23;20171;-90
2021/04/19 22:25:27;;;;;;;31.50;13.73;;;;;;;;;;6097922;23;20634;-90
2021/04/19 22:28:33;;;;;;;25.90;13.47;;;;;;;;;;6098510;23;20224;-92
2021/04/19 22:31:39;;;;;;;29.83;14.20;;;;;;;;;;6096838;23;20222;-90
2021/04/19 22:34:44;;;;;;;29.43;14.27;;;;;;;;;;6097942;23;20195;-92
2021/04/19 22:37:49;;;;;;;33.83;15.43;;;;;;;;;;6097365;23;20226;-92
2021/04/19 22:40:53;;;;;;;33.20;15.07;;;;;;;;;;6097681;23;20226;-87
2021/04/19 22:43:58;;;;;;;30.83;14.87;;;;;;;;;;6094945;23;20174;-92
2021/04/19 22:47:06;;;;;;;28.50;13.87;;;;;;;;;;6077787;23;20637;-92
2021/04/19 22:50:11;;;;;;;29.63;13.77;;;;;;;;;;6094730;23;20150;-89
2021/04/19 22:53:16;;;;;;;26.90;13.90;;;;;;;;;;6092914;23;20165;-90
2021/04/19 22:56:20;;;;;;;29.03;14.00;;;;;;;;;;6093295;23;20174;-90
2021/04/19 22:59:24;;;;;;;26.60;13.43;;;;;;;;;;6094274;23;20194;-93
2021/04/19 23:02:30;;;;;;;29.20;13.60;;;;;;;;;;6115046;23;20207;-90
2021/04/19 23:05:36;;;;;;;26.63;13.17;;;;;;;;;;6124080;23;20165;-91
2021/04/19 23:08:41;;;;;;;29.00;14.20;;;;;;;;;;6123523;23;20156;-90
2021/04/19 23:11:46;;;;;;;29.67;14.67;;;;;;;;;;6123203;23;20168;-91
2021/04/19 23:14:51;;;;;;;27.87;13.90;;;;;;;;;;6123448;23;20168;-91
2021/04/19 23:17:56;;;;;;;28.73;13.93;;;;;;;;;;6123376;23;20274;-91
2021/04/19 23:21:00;;;;;;;32.50;15.50;;;;;;;;;;6122056;23;20173;-90
2021/04/19 23:24:05;;;;;;;30.53;14.57;;;;;;;;;;6122582;23;20238;-90
2021/04/19 23:27:09;;;;;;;31.83;15.37;;;;;;;;;;6121568;23;20172;-91
2021/04/19 23:30:15;;;;;;;31.73;15.10;;;;;;;;;;6130193;23;20225;-90
2021/04/19 23:33:21;;;;;;;30.27;14.50;;;;;;;;;;6122095;23;20249;-90
2021/04/19 23:36:25;;;;;;;30.40;14.67;;;;;;;;;;6123858;23;20192;-92
2021/04/19 23:39:30;;;;;;;31.03;14.53;;;;;;;;;;6123236;23;20209;-90
2021/04/19 23:42:34;;;;;;;27.93;13.63;;;;;;;;;;6124063;23;20177;-90
2021/04/19 23:45:39;;;;;;;28.90;14.70;;;;;;;;;;6122770;23;20181;-90
2021/04/19 23:48:45;;;;;;;30.43;14.07;;;;;;;;;;6122539;23;20629;-91
2021/04/19 23:51:51;;;;;;;31.47;15.50;;;;;;;;;;6122183;23;20185;-91
2021/04/19 23:54:55;;;;;;;29.53;14.30;;;;;;;;;;6121832;23;20185;-90
2021/04/19 23:58:00;;;;;;;26.13;13.33;;;;;;;;;;6122044;23;20229;-92
